Time;durP1;ratioP1;P1;durP2;ratioP2;P2;SDS_P1;SDS_P2;PMS_P1;PMS_P2;Temp;Humidity;BMP_temperature;BMP_pressure;BME280_temperature;BME280_humidity;BME280_pressure;Samples;Min_cycle;Max_cycle;Signal;HPM_P1;HPM_P2
2021/10/21 04:08:36;;;;;;;1999.90;999.90;;;;;;;12.09;49.63;98470.81;5045186;27;97217;-71
2021/10/21 04:11:03;;;;;;;1999.90;999.90;;;;;;;12.11;49.55;98461.91;5037999;27;97340;-71
2021/10/21 04:13:31;;;;;;;1999.90;999.90;;;;;;;12.16;49.38;98451.16;5064732;27;100888;-71
2021/10/21 04:15:59;;;;;;;1999.90;999.90;;;;;;;12.15;49.38;98439.59;5068492;27;100110;-71
2021/10/21 04:18:27;;;;;;;1999.90;999.90;;;;;;;12.15;49.36;98412.94;5066535;27;97185;-72
2021/10/21 04:20:55;;;;;;;1999.90;999.90;;;;;;;12.13;49.43;98427.19;5049406;27;97102;-72
2021/10/21 04:23:22;;;;;;;1999.90;999.90;;;;;;;12.11;49.54;98427.25;5067882;27;98934;-72
2021/10/21 04:25:51;;;;;;;1999.90;999.90;;;;;;;12.08;49.53;98443.31;5068673;27;97870;-71
2021/10/21 04:28:19;;;;;;;1999.90;999.90;;;;;;;12.07;49.47;98448.69;5065645;27;96770;-71
2021/10/21 04:30:47;;;;;;;1999.90;999.90;;;;;;;12.05;49.43;98446.03;5052746;27;96843;-71
2021/10/21 04:33:15;;;;;;;1999.90;999.90;;;;;;;11.99;49.53;98443.53;5066198;27;99799;-71
2021/10/21 04:35:43;;;;;;;1999.90;999.90;;;;;;;12.02;49.51;98448.78;5067329;27;99188;-71
2021/10/21 04:38:11;;;;;;;1999.90;999.90;;;;;;;12.04;49.60;98441.63;5058367;27;96897;-71
2021/10/21 04:40:39;;;;;;;1999.90;999.90;;;;;;;12.03;49.66;98450.53;5064610;27;97186;-72
2021/10/21 04:43:08;;;;;;;1999.90;999.90;;;;;;;12.04;49.68;98449.63;5066244;27;97950;-72
2021/10/21 04:45:35;;;;;;;1999.90;999.90;;;;;;;12.05;49.61;98442.50;5083023;27;99032;-72
2021/10/21 04:48:05;;;;;;;1999.90;999.90;;;;;;;11.97;50.03;98437.34;5061040;27;96846;-72
2021/10/21 04:50:32;;;;;;;1999.90;999.90;;;;;;;11.93;50.03;98432.09;5066334;27;99249;-71
2021/10/21 04:53:00;;;;;;;1999.90;999.90;;;;;;;11.89;50.20;98433.94;5064490;27;98694;-72
2021/10/21 04:55:28;;;;;;;1999.90;999.90;;;;;;;11.82;50.29;98429.66;5047866;27;100935;-75
2021/10/21 04:57:56;;;;;;;1999.90;999.90;;;;;;;11.83;50.17;98430.56;5047066;27;96755;-73
2021/10/21 05:00:25;;;;;;;1999.90;999.90;;;;;;;11.78;50.31;98427.13;5063395;27;97168;-71
2021/10/21 05:02:53;;;;;;;1999.90;999.90;;;;;;;11.80;50.20;98410.16;5067571;27;98878;-71
2021/10/21 05:05:21;;;;;;;1999.90;999.90;;;;;;;11.78;50.14;98427.97;5065878;27;99506;-73
2021/10/21 05:07:49;;;;;;;1999.90;999.90;;;;;;;11.79;50.04;98403.09;5064115;27;96833;-72
2021/10/21 05:10:16;;;;;;;1999.90;999.90;;;;;;;11.76;49.80;98408.47;5068111;27;96919;-71
2021/10/21 05:12:44;;;;;;;1999.90;999.90;;;;;;;11.80;49.76;98383.53;5064247;27;97689;-72
2021/10/21 05:15:12;;;;;;;1999.90;999.90;;;;;;;11.79;49.60;98396.88;5064487;27;101576;-73
2021/10/21 05:17:41;;;;;;;1999.90;999.90;;;;;;;11.74;49.47;98406.78;5065935;27;97357;-72
2021/10/21 05:20:10;;;;;;;1999.90;999.90;;;;;;;11.77;49.49;98386.28;5063327;27;97444;-72
2021/10/21 05:22:38;;;;;;;1999.90;999.90;;;;;;;11.78;49.41;98381.81;5059664;27;98930;-71
2021/10/21 05:25:07;;;;;;;1999.90;999.90;;;;;;;11.77;49.03;98380.06;5059146;27;97725;-72
2021/10/21 05:27:36;;;;;;;1999.90;999.90;;;;;;;11.74;49.22;98391.66;5045395;27;96926;-71
2021/10/21 05:30:05;;;;;;;1999.90;999.90;;;;;;;11.75;48.94;98390.75;5045527;27;96767;-70
2021/10/21 05:32:33;;;;;;;1999.90;999.90;;;;;;;11.74;49.11;98396.13;5058859;27;99829;-71
2021/10/21 05:35:02;;;;;;;1999.90;999.90;;;;;;;11.72;48.71;98377.50;5042966;27;99397;-70
2021/10/21 05:37:29;;;;;;;1999.90;999.90;;;;;;;11.70;48.68;98387.31;5060082;27;97197;-70
2021/10/21 05:39:57;;;;;;;1999.90;999.90;;;;;;;11.67;48.49;98390.03;5051404;27;96802;-70
2021/10/21 05:42:25;;;;;;;1999.90;999.90;;;;;;;11.69;48.52;98379.38;5061784;27;98124;-70
2021/10/21 05:44:53;;;;;;;1999.90;999.90;;;;;;;11.66;48.51;98401.59;5062856;27;98991;-70
2021/10/21 05:47:21;;;;;;;1999.90;999.90;;;;;;;11.62;48.42;98389.25;5062829;27;96868;-70
2021/10/21 05:49:48;;;;;;;1999.90;999.90;;;;;;;11.62;48.44;98413.22;5079070;27;97558;-70
2021/10/21 05:52:19;;;;;;;1999.90;999.90;;;;;;;11.59;48.34;98407.97;5065768;27;99529;-71
2021/10/21 05:54:47;;;;;;;1999.90;999.90;;;;;;;11.56;48.16;98415.16;5065571;27;98065;-71
2021/10/21 05:57:15;;;;;;;1999.90;999.90;;;;;;;11.55;48.36;98445.34;5060717;27;96748;-71
2021/10/21 05:59:43;;;;;;;1999.90;999.90;;;;;;;11.55;48.31;98426.69;5047737;27;96741;-70
2021/10/21 06:02:11;;;;;;;1999.90;999.90;;;;;;;11.53;48.09;98425.84;5064250;27;97738;-70
2021/10/21 06:04:39;;;;;;;1999.90;999.90;;;;;;;11.52;47.91;98440.09;5043682;27;98122;-70
2021/10/21 06:07:06;;;;;;;1999.90;999.90;;;;;;;11.50;47.83;98445.44;5067686;27;96788;-70
2021/10/21 06:09:35;;;;;;;1999.90;999.90;;;;;;;11.49;47.41;98430.34;5059773;27;96893;-71
2021/10/21 06:12:04;;;;;;;1999.90;999.90;;;;;;;11.44;47.15;98453.53;5045268;27;100319;-71
2021/10/21 06:14:32;;;;;;;1999.90;999.90;;;;;;;11.41;46.72;98480.25;5068802;27;98993;-71
2021/10/21 06:17:00;;;;;;;1999.90;999.90;;;;;;;11.39;46.69;98459.88;5064312;27;97225;-71
2021/10/21 06:19:28;;;;;;;1999.90;999.90;;;;;;;11.34;46.46;98448.44;5063149;27;97302;-71
2021/10/21 06:22:00;;;;;;;1999.90;999.90;;;;;;;11.28;45.90;98453.84;5071379;27;98953;-70
2021/10/21 06:24:28;;;;;;;1999.90;999.90;;;;;;;11.25;45.93;98467.22;5063299;27;98975;-71
2021/10/21 06:26:57;;;;;;;1999.90;999.90;;;;;;;11.17;44.23;98446.94;5060381;27;97041;-71
2021/10/21 06:29:25;;;;;;;1999.90;999.90;;;;;;;11.17;45.49;98470.00;5061447;27;96869;-70
2021/10/21 06:31:53;;;;;;;1999.90;999.90;;;;;;;11.12;45.25;98472.72;5058879;27;98319;-70
2021/10/21 06:34:21;;;;;;;1999.90;999.90;;;;;;;11.13;45.01;98478.94;5061771;27;97659;-71
2021/10/21 06:36:50;;;;;;;1999.90;999.90;;;;;;;11.04;45.07;98474.69;5064089;27;97085;-70
2021/10/21 06:39:18;;;;;;;1999.90;999.90;;;;;;;11.01;45.02;98471.19;5050272;27;97030;-71
2021/10/21 06:41:45;;;;;;;1999.90;999.90;;;;;;;11.01;45.30;98437.44;5058184;27;100825;-71
2021/10/21 06:44:17;;;;;;;1999.90;999.90;;;;;;;10.99;45.15;98475.66;5045204;27;101780;-70
2021/10/21 06:46:44;;;;;;;1999.90;999.90;;;;;;;10.94;44.95;98475.72;5050775;27;97088;-73
2021/10/21 06:49:12;;;;;;;1999.90;999.90;;;;;;;11.12;43.11;98478.06;5059157;27;96759;-74
2021/10/21 06:51:40;;;;;;;1999.90;999.90;;;;;;;11.00;43.31;98466.75;5060519;27;100384;-74
2021/10/21 06:54:07;;;;;;;1999.90;999.90;;;;;;;11.24;41.92;98514.25;5054868;27;97991;-73
2021/10/21 06:56:36;;;;;;;1999.90;999.90;;;;;;;11.33;41.14;98471.50;5059790;27;97141;-72
2021/10/21 06:59:04;;;;;;;1999.90;999.90;;;;;;;11.09;42.23;98493.19;5064532;27;96965;-73
2021/10/21 07:01:33;;;;;;;1999.90;999.90;;;;;;;11.02;42.92;98467.63;5064421;27;97145;-74
2021/10/21 07:04:03;;;;;;;1999.90;999.90;;;;;;;10.93;43.53;98489.06;5056361;27;100709;-73
2021/10/21 07:06:30;;;;;;;1999.90;999.90;;;;;;;10.84;43.93;98483.88;5066751;27;96858;-72
2021/10/21 07:08:58;;;;;;;1999.90;999.90;;;;;;;10.82;43.98;98483.91;5063091;27;96922;-73
2021/10/21 07:11:27;;;;;;;1999.90;999.90;;;;;;;10.66;44.47;98493.06;5042724;27;99348;-71
2021/10/21 07:13:55;;;;;;;1999.90;999.90;;;;;;;10.61;44.59;98478.94;5060525;27;99636;-73
2021/10/21 07:16:22;;;;;;;1999.90;999.90;;;;;;;10.61;44.63;98491.38;5058668;27;97280;-73
2021/10/21 07:18:52;;;;;;;1999.90;999.90;;;;;;;10.59;44.55;98495.81;5060833;27;96811;-73
2021/10/21 07:21:19;;;;;;;1999.90;999.90;;;;;;;10.62;44.63;98495.78;5064974;27;99157;-71
2021/10/21 07:23:48;;;;;;;1999.90;999.90;;;;;;;10.55;44.77;98496.78;5056823;27;96803;-72
2021/10/21 07:26:16;;;;;;;1999.90;999.90;;;;;;;10.52;44.80;98480.88;5063232;27;96659;-71
2021/10/21 07:28:44;;;;;;;1999.90;999.90;;;;;;;10.46;44.79;98487.16;5059662;27;98581;-72
2021/10/21 07:31:15;;;;;;;1999.90;999.90;;;;;;;10.45;44.88;98519.94;5064191;27;99396;-68
2021/10/21 07:33:43;;;;;;;1999.90;999.90;;;;;;;10.43;44.89;98483.66;5057946;27;98596;-69
2021/10/21 07:36:12;;;;;;;1999.90;999.90;;;;;;;10.42;44.91;98500.50;5072330;27;97237;-72
2021/10/21 07:38:40;;;;;;;1999.90;999.90;;;;;;;10.42;44.97;98481.91;5069777;27;97145;-72
2021/10/21 07:41:08;;;;;;;1999.90;999.90;;;;;;;10.39;45.07;98490.78;5060104;27;99232;-72
2021/10/21 07:43:37;;;;;;;1999.90;999.90;;;;;;;10.39;45.14;98493.44;5043136;27;100219;-71
2021/10/21 07:46:05;;;;;;;1999.90;999.90;;;;;;;10.33;45.07;98485.53;5040862;27;96687;-71
2021/10/21 07:48:33;;;;;;;1999.90;999.90;;;;;;;10.34;45.16;98475.81;5068817;27;98261;-73
2021/10/21 07:51:01;;;;;;;1999.90;999.90;;;;;;;10.38;45.02;98504.06;5065271;27;98915;-70
2021/10/21 07:53:30;;;;;;;1999.90;999.90;;;;;;;10.40;44.76;98511.13;5068730;27;97126;-73
2021/10/21 07:56:00;;;;;;;1999.90;999.90;;;;;;;10.41;44.96;98506.72;5060517;27;97228;-70
2021/10/21 07:58:28;;;;;;;1999.90;999.90;;;;;;;10.41;44.68;98506.72;5065550;27;96811;-70
2021/10/21 08:00:56;;;;;;;1999.90;999.90;;;;;;;10.41;44.58;98512.03;5060033;27;97758;-71
2021/10/21 08:03:24;;;;;;;1999.90;999.90;;;;;;;10.47;44.66;98534.09;5065927;27;99288;-71
2021/10/21 08:05:52;;;;;;;1999.90;999.90;;;;;;;10.69;43.58;98539.97;5057563;27;97549;-70
2021/10/21 08:08:20;;;;;;;1999.90;999.90;;;;;;;10.53;43.90;98486.16;5064126;27;96625;-71
2021/10/21 08:10:49;;;;;;;1999.90;999.90;;;;;;;10.51;43.74;98524.28;5054004;27;99000;-69
2021/10/21 08:13:17;;;;;;;1999.90;999.90;;;;;;;10.51;44.04;98508.34;5045799;27;97742;-70
2021/10/21 08:15:48;;;;;;;1999.90;999.90;;;;;;;10.50;43.97;98496.84;5060860;27;96953;-70
2021/10/21 08:18:16;;;;;;;1999.90;999.90;;;;;;;10.47;44.08;98483.59;5064399;27;96566;-71
2021/10/21 08:20:45;;;;;;;1999.90;999.90;;;;;;;10.46;44.16;98481.84;5047625;27;99369;-73
2021/10/21 08:23:12;;;;;;;1999.90;999.90;;;;;;;10.47;44.36;98494.22;5052990;27;101110;-71
2021/10/21 08:25:40;;;;;;;1999.90;999.90;;;;;;;10.45;44.35;98497.81;5047229;27;96902;-73
2021/10/21 08:28:10;;;;;;;1999.90;999.90;;;;;;;10.54;44.09;98530.44;5066702;27;96913;-72
2021/10/21 08:30:41;;;;;;;1999.90;999.90;;;;;;;10.46;44.14;98504.88;5048945;27;99027;-72
2021/10/21 08:33:09;;;;;;;1999.90;999.90;;;;;;;10.61;43.48;98500.19;5044223;27;99005;-72
2021/10/21 08:35:37;;;;;;;1999.90;999.90;;;;;;;10.48;43.67;98503.09;5061792;27;96967;-72
2021/10/21 08:38:05;;;;;;;1999.90;999.90;;;;;;;10.43;43.97;98505.78;5066591;27;97380;-73
2021/10/21 08:40:34;;;;;;;1999.90;999.90;;;;;;;10.67;43.09;98509.88;5059059;27;99307;-70
2021/10/21 08:43:03;;;;;;;1999.90;999.90;;;;;;;10.48;43.33;98511.94;5061797;27;99150;-71
2021/10/21 08:45:32;;;;;;;1999.90;999.90;;;;;;;10.71;43.04;98512.47;5057656;27;96931;-70
2021/10/21 08:48:02;;;;;;;1999.90;999.90;;;;;;;10.49;43.06;98526.09;5048256;27;96787;-70
2021/10/21 08:50:33;;;;;;;1999.90;999.90;;;;;;;10.48;43.79;98517.28;5048788;27;98924;-71
2021/10/21 08:53:01;;;;;;;1999.90;999.90;;;;;;;10.45;43.90;98551.84;5048490;27;99230;-71
2021/10/21 08:55:28;;;;;;;1999.90;999.90;;;;;;;10.42;44.00;98497.84;5060327;27;97210;-71
2021/10/21 08:57:56;;;;;;;1999.90;999.90;;;;;;;10.41;43.78;98527.97;5043149;27;96682;-71
2021/10/21 09:00:24;;;;;;;1999.90;999.90;;;;;;;10.41;44.30;98512.03;5067642;27;97884;-71
2021/10/21 09:02:55;;;;;;;1999.90;999.90;;;;;;;10.40;44.15;98512.91;5063735;27;99286;-71
2021/10/21 09:05:30;;;;;;;1999.90;999.90;;;;;;;10.41;44.33;98527.97;5064115;27;97131;-70
2021/10/21 09:08:06;;;;;;;1999.90;999.90;;;;;;;10.33;43.32;98508.59;5064317;27;97145;-71
2021/10/21 09:10:34;;;;;;;1999.90;999.90;;;;;;;10.46;43.92;98539.44;5038471;27;98025;-71
2021/10/21 09:13:01;;;;;;;1999.90;999.90;;;;;;;10.32;44.43;98597.22;5048625;27;99282;-71
2021/10/21 09:15:29;;;;;;;1999.90;999.90;;;;;;;10.48;43.66;98524.34;5040694;27;98527;-71
2021/10/21 09:17:58;;;;;;;1999.90;999.90;;;;;;;10.52;43.33;98548.19;5062848;27;97592;-71
2021/10/21 09:20:37;;;;;;;1999.90;999.90;;;;;;;10.37;43.83;98545.75;5063168;27;97611;-73
2021/10/21 09:23:07;;;;;;;1999.90;999.90;;;;;;;10.25;42.90;98534.41;5041434;27;100540;-69
2021/10/21 09:25:36;;;;;;;1999.90;999.90;;;;;;;10.21;43.97;98552.13;5072363;27;97233;-70
2021/10/21 09:28:21;;;;;;;1999.90;999.90;;;;;;;10.20;43.22;98582.28;5065289;27;97374;-70
2021/10/21 09:30:54;;;;;;;1999.90;999.90;;;;;;;10.19;44.18;98586.72;5066484;27;97716;-73
2021/10/21 09:33:23;;;;;;;1999.90;999.90;;;;;;;10.18;44.35;98595.59;5062634;27;100446;-72
2021/10/21 09:35:54;;;;;;;1999.90;999.90;;;;;;;10.10;44.44;98608.09;5060940;27;96777;-70
2021/10/21 09:38:26;;;;;;;1999.90;999.90;;;;;;;10.07;44.34;98650.66;5056828;27;99993;-70
2021/10/21 09:40:57;;;;;;;1999.90;999.90;;;;;;;10.05;44.71;98617.91;5042041;27;101009;-70
2021/10/21 09:43:30;;;;;;;1999.90;999.90;;;;;;;10.00;44.68;98640.97;5065731;27;98689;-72
2021/10/21 09:45:58;;;;;;;1999.90;999.90;;;;;;;9.96;44.86;98641.00;5060308;27;97023;-74
2021/10/21 09:48:28;;;;;;;1999.90;999.90;;;;;;;9.26;55.46;98720.38;5051610;27;96781;-73
2021/10/21 09:50:56;;;;;;;1999.90;999.90;;;;;;;24.17;74.19;98741.22;5036376;27;99283;-73
2021/10/21 09:53:31;;;;;;;1999.90;999.90;;;;;;;34.30;17.38;98765.53;5059810;27;98467;-71
2021/10/21 09:56:06;;;;;;;1999.90;999.90;;;;;;;34.99;16.13;98771.59;5059381;27;97077;-72
2021/10/21 09:58:36;;;;;;;1999.90;999.90;;;;;;;34.56;14.45;98796.72;5062011;27;96883;-73
2021/10/21 10:01:08;;;;;;;1999.90;999.90;;;;;;;34.04;15.45;98815.31;5058490;27;99344;-73
2021/10/21 10:03:40;;;;;;;1999.90;999.90;;;;;;;33.33;13.99;98857.84;5061823;27;100877;-73
2021/10/21 10:06:07;;;;;;;1999.90;999.90;;;;;;;34.12;12.86;98865.03;5059747;27;96828;-74
2021/10/21 10:08:36;;;;;;;1999.90;999.90;;;;;;;35.02;12.05;98873.56;5063858;27;96954;-73
2021/10/21 10:11:08;;;;;;;1999.90;999.90;;;;;;;34.81;12.30;98949.69;5060434;27;98862;-74
2021/10/21 10:13:36;;;;;;;1999.90;999.90;;;;;;;34.84;11.63;98927.22;5067380;27;97556;-71
2021/10/21 10:16:04;;;;;;;1999.90;999.90;;;;;;;35.45;11.24;98938.78;5063746;27;96815;-72
2021/10/21 10:18:33;;;;;;;1999.90;999.90;;;;;;;35.52;10.72;98956.47;5058026;27;97289;-72
2021/10/21 10:21:09;;;;;;;1999.90;999.90;;;;;;;35.46;11.67;99000.53;5059801;27;97821;-71
2021/10/21 10:23:40;;;;;;;1999.90;999.90;;;;;;;35.26;10.93;98993.56;5063256;27;99343;-71
2021/10/21 10:26:07;;;;;;;1999.90;999.90;;;;;;;34.78;10.82;99016.28;5061277;27;96815;-72
2021/10/21 10:28:53;;;;;;;1999.90;999.90;;;;;;;34.11;12.57;99026.22;5058675;27;97488;-70
2021/10/21 10:31:40;;;;;;;1999.90;999.90;;;;;;;33.96;12.40;99043.44;5043150;27;100613;-72
2021/10/21 10:34:09;;;;;;;1999.90;999.90;;;;;;;34.43;10.85;99049.59;5057066;27;97715;-72
2021/10/21 10:36:38;;;;;;;1999.90;999.90;;;;;;;33.18;11.68;99056.06;5056242;27;97167;-72
2021/10/21 10:39:08;;;;;;;1999.90;999.90;;;;;;;31.82;13.08;99097.84;5058466;27;97064;-70
2021/10/21 10:41:53;;;;;;;1999.90;999.90;;;;;;;31.63;13.56;99084.94;5041605;27;98943;-72
2021/10/21 10:45:00;;;;;;;1999.90;999.90;;;;;;;32.73;12.72;99082.56;5041259;27;100688;-71
2021/10/21 10:47:48;;;;;;;1999.90;999.90;;;;;;;32.76;12.15;99109.00;5061797;27;98131;-71
2021/10/21 10:50:19;;;;;;;1999.90;999.90;;;;;;;32.71;11.77;99128.72;5058553;27;97292;-71
2021/10/21 10:52:50;;;;;;;1999.90;999.90;;;;;;;32.46;11.94;99147.75;5057451;27;98855;-72
2021/10/21 10:55:19;;;;;;;1999.90;999.90;;;;;;;33.05;11.31;99153.84;5062022;27;97760;-70
2021/10/21 10:57:56;;;;;;;1999.90;999.90;;;;;;;33.17;11.61;99250.06;5063424;27;96913;-71
2021/10/21 11:00:51;;;;;;;1999.90;999.90;;;;;;;33.53;11.70;99184.03;5055795;27;97606;-72
2021/10/21 11:03:41;;;;;;;1999.90;999.90;;;;;;;33.86;11.83;99216.56;5067485;27;98615;-72
2021/10/21 11:06:10;;;;;;;1999.90;999.90;;;;;;;34.44;10.70;99214.31;5057165;27;98677;-71
2021/10/21 11:09:04;;;;;;;1999.90;999.90;;;;;;;34.73;11.00;99215.81;5067449;27;97260;-71
2021/10/21 11:11:52;;;;;;;1999.90;999.90;;;;;;;34.94;10.87;99221.88;5059623;27;97367;-71
2021/10/21 11:14:22;;;;;;;1999.90;999.90;;;;;;;35.05;10.49;99276.91;5056966;27;97640;-72
2021/10/21 11:16:54;;;;;;;1999.90;999.90;;;;;;;34.26;10.97;99251.03;5061398;27;98810;-70
2021/10/21 11:19:52;;;;;;;1999.90;999.90;;;;;;;34.14;11.56;99287.31;5043055;27;97141;-71
2021/10/21 11:22:40;;;;;;;1999.90;999.90;;;;;;;33.93;11.65;99267.38;5065452;27;97126;-72
2021/10/21 11:25:11;;;;;;;1999.90;999.90;;;;;;;34.09;11.30;99273.13;5064589;27;97987;-71
2021/10/21 11:27:40;;;;;;;1999.90;999.90;;;;;;;34.24;11.00;99313.00;5054407;27;98951;-71
2021/10/21 11:30:14;;;;;;;1999.90;999.90;;;;;;;33.87;11.19;99301.09;5057397;27;96849;-72
2021/10/21 11:33:03;;;;;;;1999.90;999.90;;;;;;;34.40;10.84;99315.97;5037893;27;97234;-71
2021/10/21 11:35:32;;;;;;;1999.90;999.90;;;;;;;35.15;10.33;99302.59;5053289;27;98770;-71
2021/10/21 11:38:01;;;;;;;1999.90;999.90;;;;;;;34.48;10.73;99324.38;5063464;27;99432;-72
2021/10/21 11:40:34;;;;;;;1999.90;999.90;;;;;;;34.96;10.62;99318.47;5062645;27;96928;-72
2021/10/21 11:43:03;;;;;;;1999.90;999.90;;;;;;;35.41;9.95;99312.84;5039209;27;97120;-71
2021/10/21 11:45:35;;;;;;;1999.90;999.90;;;;;;;34.18;10.85;99333.81;5058187;27;97271;-71
2021/10/21 11:48:04;;;;;;;1999.90;999.90;;;;;;;34.38;10.80;99317.13;5067415;27;98867;-70
2021/10/21 11:50:37;;;;;;;1999.90;999.90;;;;;;;34.12;10.90;99322.50;5061170;27;96613;-71
2021/10/21 11:53:06;;;;;;;1999.90;999.90;;;;;;;34.07;11.12;99334.03;5057987;27;97095;-73
2021/10/21 11:55:35;;;;;;;1999.90;999.90;;;;;;;34.11;11.13;99326.31;5058074;27;99269;-72
2021/10/21 11:58:11;;;;;;;1999.90;999.90;;;;;;;33.87;10.92;99332.34;5061963;27;97084;-71
2021/10/21 12:00:39;;;;;;;1999.90;999.90;;;;;;;34.27;11.24;99381.72;5035434;27;96856;-72
2021/10/21 12:03:07;;;;;;;1999.90;999.90;;;;;;;34.43;10.99;99373.69;5064018;27;97225;-71
2021/10/21 12:05:38;;;;;;;1999.90;999.90;;;;;;;33.88;11.40;99344.25;5062145;27;98685;-71
2021/10/21 12:08:05;;;;;;;1999.90;999.90;;;;;;;34.31;10.97;99419.06;5038896;27;101481;-72
2021/10/21 12:10:35;;;;;;;1999.90;999.90;;;;;;;34.17;11.06;99375.41;5061152;27;96868;-72
2021/10/21 12:13:05;;;;;;;1999.90;999.90;;;;;;;34.35;11.07;99392.91;5063274;27;96639;-73
2021/10/21 12:15:34;;;;;;;1999.90;999.90;;;;;;;34.21;10.76;99426.53;5041987;27;99312;-72
2021/10/21 12:18:06;;;;;;;1999.90;999.90;;;;;;;34.16;10.86;99398.50;5057582;27;96653;-73
2021/10/21 12:20:39;;;;;;;1999.90;999.90;;;;;;;33.75;10.69;99405.31;5062903;27;97445;-71
2021/10/21 12:23:15;;;;;;;1999.90;999.90;;;;;;;32.62;11.42;99380.28;5060641;27;96778;-71
2021/10/21 12:25:48;;;;;;;1999.90;999.90;;;;;;;32.94;11.15;99427.78;5061695;27;99251;-71
2021/10/21 12:28:16;;;;;;;1999.90;999.90;;;;;;;33.13;11.62;99436.06;5062344;27;99215;-71
2021/10/21 12:30:44;;;;;;;1999.90;999.90;;;;;;;33.42;11.66;99429.72;5059560;27;97377;-71
2021/10/21 12:33:13;;;;;;;1999.90;999.90;;;;;;;33.64;11.26;99421.16;5068740;27;96806;-71
2021/10/21 12:35:56;;;;;;;1999.90;999.90;;;;;;;33.23;10.59;99423.19;5063952;27;97744;-71
2021/10/21 12:38:25;;;;;;;1999.90;999.90;;;;;;;34.05;10.96;99405.09;5060371;27;99873;-71
2021/10/21 12:41:05;;;;;;;1999.90;999.90;;;;;;;33.99;10.26;99437.97;5058624;27;96795;-71
2021/10/21 12:43:33;;;;;;;1999.90;999.90;;;;;;;33.86;11.12;99415.28;5062465;27;96849;-72
2021/10/21 12:46:04;;;;;;;1999.90;999.90;;;;;;;33.70;11.06;99406.78;5061065;27;99291;-71
2021/10/21 12:48:34;;;;;;;1999.90;999.90;;;;;;;33.84;10.96;99422.84;5065215;27;100881;-72
2021/10/21 12:51:11;;;;;;;1999.90;999.90;;;;;;;34.25;10.78;99422.44;5066054;27;96751;-72
2021/10/21 12:53:39;;;;;;;1999.90;999.90;;;;;;;33.80;11.33;99437.97;5062529;27;97744;-71
2021/10/21 12:56:22;;;;;;;1999.90;999.90;;;;;;;34.02;9.82;99456.97;5064450;27;99751;-71
2021/10/21 12:59:00;;;;;;;1999.90;999.90;;;;;;;34.55;9.61;99422.19;5060955;27;99020;-70
2021/10/21 13:01:28;;;;;;;1999.90;999.90;;;;;;;34.98;10.56;99452.78;5064553;27;96733;-71
2021/10/21 13:03:56;;;;;;;1999.90;999.90;;;;;;;35.09;10.23;99419.38;5060182;27;97075;-71
2021/10/21 13:06:26;;;;;;;1999.90;999.90;;;;;;;34.91;10.47;99406.56;5064803;27;99165;-72
2021/10/21 13:08:54;;;;;;;1999.90;999.90;;;;;;;34.74;10.67;99463.53;5046425;27;99143;-72
2021/10/21 13:11:23;;;;;;;1999.90;999.90;;;;;;;34.61;10.72;99435.38;5051945;27;96669;-71
2021/10/21 13:13:58;;;;;;;1999.90;999.90;;;;;;;33.66;9.85;99502.78;5062208;27;96848;-70
2021/10/21 13:16:26;;;;;;;1999.90;999.90;;;;;;;34.61;10.47;99509.16;5064799;27;100541;-72
2021/10/21 13:18:59;;;;;;;1999.90;999.90;;;;;;;34.37;10.65;99473.72;5062636;27;98278;-71
2021/10/21 13:21:27;;;;;;;1999.90;999.90;;;;;;;33.76;10.61;99480.66;5042605;27;96631;-72
2021/10/21 13:23:55;;;;;;;1999.90;999.90;;;;;;;34.43;10.49;99495.25;5042654;27;97078;-72
2021/10/21 13:26:24;;;;;;;1999.90;999.90;;;;;;;34.73;9.92;99506.03;5063187;27;98986;-71
2021/10/21 13:28:53;;;;;;;1999.90;999.90;;;;;;;34.63;10.00;99535.59;5061491;27;98953;-71
2021/10/21 13:31:21;;;;;;;1999.90;999.90;;;;;;;34.93;9.99;99507.69;5060614;27;97840;-71
2021/10/21 13:33:49;;;;;;;1999.90;999.90;;;;;;;34.77;10.06;99513.00;5047363;27;98062;-71
2021/10/21 13:36:16;;;;;;;1999.90;999.90;;;;;;;34.62;10.08;99497.94;5065631;27;98944;-72
2021/10/21 13:38:44;;;;;;;1999.90;999.90;;;;;;;34.58;10.10;99501.13;5065088;27;100102;-72
2021/10/21 13:41:12;;;;;;;1999.90;999.90;;;;;;;34.42;10.30;99521.13;5062916;27;96740;-71
2021/10/21 13:43:41;;;;;;;1999.90;999.90;;;;;;;34.37;10.27;99515.16;5065937;27;97114;-71
2021/10/21 13:46:09;;;;;;;1999.90;999.90;;;;;;;34.38;10.54;99530.72;5051824;27;99098;-71
2021/10/21 13:48:37;;;;;;;1999.90;999.90;;;;;;;34.64;9.97;99506.94;5054390;27;97745;-71
2021/10/21 13:51:05;;;;;;;1999.90;999.90;;;;;;;34.66;9.92;99527.00;5049752;27;96854;-71
2021/10/21 13:53:32;;;;;;;1999.90;999.90;;;;;;;34.93;10.10;99542.75;5062694;27;96985;-72
2021/10/21 13:56:02;;;;;;;1999.90;999.90;;;;;;;34.27;10.43;99556.63;5075147;27;98564;-72
2021/10/21 13:58:30;;;;;;;1999.90;999.90;;;;;;;34.12;10.40;99565.50;5058405;27;101349;-71
2021/10/21 14:00:59;;;;;;;1999.90;999.90;;;;;;;34.28;10.09;99544.53;5061260;27;97175;-72
2021/10/21 14:03:27;;;;;;;1999.90;999.90;;;;;;;34.28;10.25;99543.69;5063108;27;96844;-72
2021/10/21 14:05:56;;;;;;;1999.90;999.90;;;;;;;34.30;10.36;99525.09;5065904;27;97697;-72
2021/10/21 14:08:24;;;;;;;1999.90;999.90;;;;;;;33.55;10.30;99538.75;5046367;27;100325;-72
2021/10/21 14:10:53;;;;;;;1999.90;999.90;;;;;;;33.70;10.58;99553.88;5068123;27;97094;-71
2021/10/21 14:13:20;;;;;;;1999.90;999.90;;;;;;;33.59;10.36;99559.53;5065192;27;97260;-72
2021/10/21 14:15:49;;;;;;;1999.90;999.90;;;;;;;33.72;10.24;99564.78;5077378;27;100991;-71
2021/10/21 14:18:18;;;;;;;1999.90;999.90;;;;;;;34.17;9.91;99550.22;5047123;27;99316;-71
2021/10/21 14:20:46;;;;;;;1999.90;999.90;;;;;;;34.27;10.14;99569.56;5066548;27;97111;-71
2021/10/21 14:23:14;;;;;;;1999.90;999.90;;;;;;;34.26;10.12;99570.59;5064343;27;97033;-72
2021/10/21 14:25:41;;;;;;;1999.90;999.90;;;;;;;34.63;9.87;99554.94;5049021;27;97714;-71
2021/10/21 14:28:09;;;;;;;1999.90;999.90;;;;;;;34.51;9.74;99534.03;5050978;27;99368;-72
2021/10/21 14:30:38;;;;;;;1999.90;999.90;;;;;;;34.67;9.92;99566.56;5046176;27;98338;-72
2021/10/21 14:33:06;;;;;;;1999.90;999.90;;;;;;;33.90;10.44;99571.34;5061482;27;96889;-72
2021/10/21 14:35:35;;;;;;;1999.90;999.90;;;;;;;34.64;9.90;99547.53;5065584;27;99441;-72
2021/10/21 14:38:03;;;;;;;1999.90;999.90;;;;;;;34.86;9.80;99550.81;5045802;27;101306;-72
2021/10/21 14:40:31;;;;;;;1999.90;999.90;;;;;;;35.30;9.51;99539.94;5058260;27;96832;-71
2021/10/21 14:42:59;;;;;;;1999.90;999.90;;;;;;;35.33;9.37;99536.88;5068656;27;96980;-71
2021/10/21 14:45:27;;;;;;;1999.90;999.90;;;;;;;35.25;9.52;99548.69;5054253;27;99519;-72
2021/10/21 14:47:56;;;;;;;1999.90;999.90;;;;;;;35.04;9.80;99537.91;5050442;27;99719;-72
2021/10/21 14:50:23;;;;;;;1999.90;999.90;;;;;;;35.26;9.37;99544.94;5059427;27;97328;-72
2021/10/21 14:52:52;;;;;;;1999.90;999.90;;;;;;;35.48;9.47;99552.78;5061001;27;97089;-71
2021/10/21 14:55:20;;;;;;;1999.90;999.90;;;;;;;35.35;9.48;99591.03;5058760;27;99362;-72
2021/10/21 14:57:48;;;;;;;1999.90;999.90;;;;;;;35.33;9.42;99567.28;5058293;27;97602;-72
2021/10/21 15:00:16;;;;;;;1999.90;999.90;;;;;;;35.25;9.51;99539.56;5057300;27;96816;-71
2021/10/21 15:02:44;;;;;;;1999.90;999.90;;;;;;;35.52;9.29;99525.66;5057096;27;96686;-70
2021/10/21 15:05:14;;;;;;;1999.90;999.90;;;;;;;35.62;9.36;99510.75;5054172;27;97948;-72
2021/10/21 15:10:45;;;;;;;1999.90;999.90;;;;;;;35.51;9.53;99521.13;5050633;27;97763;-72
2021/10/21 15:13:19;;;;;;;1999.90;999.90;;;;;;;35.62;9.13;99537.53;5061708;27;96817;-72
2021/10/21 15:16:17;;;;;;;1999.90;999.90;;;;;;;35.33;9.51;99531.31;5062584;27;100746;-72
2021/10/21 15:24:15;;;;;;;1999.90;999.90;;;;;;;34.68;9.73;99530.50;5044759;27;96920;-72